Terminal Aerodrome Forecast
Issued by NWS Wakefield, VA

Home | Current Version | Previous Version | Text Only | Print | Product List | Glossary On
Versions: 1 2 3 4 5 6 7 8 9 10 11 12 13 14 15 16 17 18 19
000
FTUS41 KAKQ 020500
TAFECG
TAF
KECG 020520Z 0206/0306 25005KT P6SM OVC003
     FM021300 24008KT P6SM SCT006 OVC012
     FM021500 32009KT P6SM SCT015 OVC030
     FM021800 01012G20KT P6SM BKN050
     FM022000 01006KT P6SM SCT250=

USA.gov is the U.S. government's official web portal to all federal, state and local government web resources and services.